Flight Track Log - Related Links

Times and Time Zones

All times are in EDT time to prevent confusion due to time zone crossing. See the EJA951 flight status page for this flight to view local times or setup timezone preferences in your user account.

Time Position Orientation Groundspeed Altitude Reporting Facility
EDT Latitude Longitude Course Direction KTS MPH feet Rate Location/Type
Sun 04:00:27 PM 46.8411 -114.0703 183° South 222 255 7,600  Level Salt Lake Center
Sun 04:01:29 PM 46.7819 -114.0281 154° Southeast 244 281 11,300 2,806 Climbing Salt Lake Center
Sun 04:02:31 PM 46.7014 -113.9469 145° Southeast 337 388 13,400 1,935 Climbing Salt Lake Center
Sun 04:03:33 PM 46.6122 -113.8597 146° Southeast 385 443 15,300 2,244 Climbing Salt Lake Center
Sun 04:04:34 PM 46.5122 -113.7589 145° Southeast 406 467 18,000 2,341 Climbing Salt Lake Center
Sun 04:05:36 PM 46.4231 -113.6728 146° Southeast 389 448 20,100 1,887 Climbing Salt Lake Center
Sun 04:06:38 PM 46.3381 -113.6461 168° South 377 434 21,900 2,081 Climbing Salt Lake Center
Sun 04:07:40 PM 46.2139 -113.6342 176° South 373 429 24,400 2,274 Climbing Salt Lake Center
Sun 04:08:42 PM 46.1094 -113.6269 177° South 376 433 26,600 2,177 Climbing Salt Lake Center
Sun 04:09:44 PM 45.9933 -113.6167 176° South 380 437 28,900 2,129 Climbing Salt Lake Center
Sun 04:10:46 PM 45.8853 -113.6069 176° South 383 441 31,000 1,935 Climbing Salt Lake Center
Sun 04:11:48 PM 45.7758 -113.5978 177° South 386 444 32,900 1,463 Climbing Salt Lake Center
Sun 04:12:49 PM 45.6611 -113.5875 176° South 401 461 34,000 1,024 Climbing Salt Lake Center
Sun 04:13:51 PM 45.5342 -113.5761 176° South 438 504 35,000 968 Climbing Salt Lake Center
Sun 04:14:53 PM 45.4033 -113.5644 176° South 457 526 36,000 968 Climbing Salt Lake Center
Sun 04:15:55 PM 45.2714 -113.5531 177° South 472 543 37,000 1,016 Climbing Salt Lake Center
Sun 04:16:57 PM 45.1208 -113.5400 176° South 484 557 38,100 1,016 Climbing Salt Lake Center
Sun 04:17:59 PM 44.9903 -113.5275 176° South 490 564 39,100 1,016 Climbing Salt Lake Center
Sun 04:19:01 PM 44.8378 -113.5147 177° South 492 566 40,200 919 Climbing Salt Lake Center
Sun 04:20:03 PM 44.7089 -113.5031 176° South 487 560 41,000 387 Climbing Salt Lake Center
Sun 04:21:05 PM 44.5589 -113.4900 176° South 484 557 41,000  Level Salt Lake Center
Sun 04:22:07 PM 44.4258 -113.4794 177° South 490 564 41,000  Level Salt Lake Center
Sun 04:23:09 PM 44.2894 -113.4675 176° South 502 578 41,000  Level Salt Lake Center
Sun 04:24:10 PM 44.1300 -113.4550 177° South 510 587 41,000  Level Salt Lake Center
Sun 04:25:12 PM 43.9914 -113.4422 176° South 517 595 41,000  Level Salt Lake Center
Sun 04:26:14 PM 43.8342 -113.4292 177° South 510 587 41,000  Level Salt Lake Center
Sun 04:27:16 PM 43.6986 -113.4178 177° South 509 586 41,000  Level Salt Lake Center
Sun 04:28:18 PM 43.5403 -113.4044 177° South 510 587 41,000  Level Salt Lake Center
Sun 04:29:20 PM 43.4039 -113.3939 177° South 511 588 41,000  Level Salt Lake Center
Sun 04:30:22 PM 43.2461 -113.3917 179° South 509 586 41,000  Level Salt Lake Center
Sun 04:31:24 PM 43.1106 -113.4028 183° South 509 586 41,000  Level Salt Lake Center
Sun 04:32:25 PM 42.9525 -113.4125 183° South 510 587 41,000  Level Salt Lake Center
Sun 04:33:27 PM 42.8172 -113.4217 183° South 509 586 41,000  Level Salt Lake Center
Sun 04:34:29 PM 42.6717 -113.4317 183° South 512 589 41,000  Level Salt Lake Center
Sun 04:35:31 PM 42.5303 -113.4381 182° South 510 587 41,000  Level Salt Lake Center
Sun 04:36:33 PM 42.3889 -113.4483 183° South 511 588 41,000  Level Salt Lake Center
Sun 04:37:34 PM 42.2469 -113.4586 183° South 512 589 41,000  Level Salt Lake Center
Sun 04:38:36 PM 42.0769 -113.4689 183° South 511 588 41,000  Level Salt Lake Center
Sun 04:39:38 PM 41.9344 -113.4769 182° South 514 592 41,000  Level Salt Lake Center
Sun 04:40:40 PM 41.7928 -113.4867 183° South 513 590 41,000  Level Salt Lake Center
Sun 04:41:42 PM 41.6492 -113.4931 182° South 516 594 41,000  Level Salt Lake Center
Sun 04:42:44 PM 41.5058 -113.4878 178° South 517 595 41,000  Level Salt Lake Center
Sun 04:43:46 PM 41.3614 -113.4833 179° South 520 598 41,000  Level Salt Lake Center
Sun 04:44:47 PM 41.1903 -113.4775 179° South 517 595 41,000  Level Salt Lake Center
Sun 04:45:49 PM 41.0472 -113.4744 179° South 517 595 41,000  Level Salt Lake Center
Sun 04:46:51 PM 40.9056 -113.4700 179° South 515 593 41,000  Level Salt Lake Center
Sun 04:47:53 PM 40.7636 -113.4658 179° South 512 589 41,000  Level Salt Lake Center
Sun 04:48:55 PM 40.6192 -113.4619 179° South 518 596 41,000  Level Salt Lake Center
Sun 04:49:57 PM 40.4769 -113.4575 179° South 515 593 41,000  Level Salt Lake Center
Sun 04:50:58 PM 40.3047 -113.4519 179° South 516 594 41,000  Level Salt Lake Center
Sun 04:52:00 PM 40.1608 -113.4486 179° South 517 595 41,000  Level Salt Lake Center
Sun 04:53:02 PM 40.0186 -113.4444 179° South 514 592 41,000  Level Salt Lake Center
Sun 04:54:04 PM 39.8753 -113.4400 179° South 514 592 41,000  Level Salt Lake Center
Sun 04:55:06 PM 39.7261 -113.4369 179° South 515 593 41,000  Level Salt Lake Center
Sun 04:56:07 PM 39.5819 -113.4308 178° South 517 595 41,000  Level Salt Lake Center
Sun 04:57:09 PM 39.4386 -113.4272 179° South 517 595 41,000 -194 Level Salt Lake Center
Sun 04:58:11 PM 39.2672 -113.4228 179° South 515 593 40,600 -677 Descending Salt Lake Center
Sun 04:59:13 PM 39.1256 -113.4183 179° South 511 588 39,600 -968 Descending Salt Lake Center
Sun 05:00:15 PM 38.9844 -113.4139 179° South 507 583 38,600 -1,161 Descending Salt Lake Center
Sun 05:01:17 PM 38.8419 -113.4097 179° South 511 588 37,200 -1,415 Descending Salt Lake Center
Sun 05:02:18 PM 38.6964 -113.4067 179° South 521 600 35,700 -1,073 Descending Salt Lake Center
Sun 05:03:20 PM 38.5500 -113.4044 179° South 526 605 35,000 -629 Descending Salt Lake Center
Sun 05:04:22 PM 38.4019 -113.3989 178° South 532 612 34,400 -1,161 Descending Salt Lake Center
Sun 05:05:24 PM 38.2281 -113.3956 179° South 522 601 32,600 -1,161 Descending Salt Lake Center
Sun 05:06:26 PM 38.0828 -113.3917 179° South 523 602 32,000 -290 Descending Salt Lake Center
Sun 05:07:28 PM 37.9350 -113.3889 179° South 532 612 32,000  Level Salt Lake Center
Sun 05:08:29 PM 37.7972 -113.4425 197° South 525 604 32,000  Level Salt Lake Center
Sun 05:09:31 PM 37.6650 -113.5133 203° Southwest 522 601 32,000  Level Salt Lake Center
Sun 05:10:04 PM 37.5861 -113.5539 202° Southwest 520 598 32,000 -253 Level Los Angeles Center
Sun 05:11:06 PM 37.4519 -113.6242 203° Southwest 525 604 31,600 -1,306 Descending Los Angeles Center
Sun 05:12:08 PM 37.2942 -113.7067 203° Southwest 516 594 29,300 -2,081 Descending Los Angeles Center
Sun 05:13:10 PM 37.1611 -113.7758 203° Southwest 518 596 27,300 -1,920 Descending Los Angeles Center
Sun 05:14:13 PM 37.0319 -113.8506 205° Southwest 515 593 25,300 -2,064 Descending Los Angeles Center
Sun 05:15:15 PM 36.9142 -113.9667 218° Southwest 488 562 23,000 -2,129 Descending Los Angeles Center
Sun 05:16:17 PM 36.8136 -114.0658 218° Southwest 467 537 20,900 -1,935 Descending Los Angeles Center
Sun 05:17:19 PM 36.7247 -114.1525 218° Southwest 460 529 19,000 -1,984 Descending Los Angeles Center
Sun 05:18:21 PM 36.6194 -114.2561 218° Southwest 439 505 16,800 -2,032 Descending Los Angeles Center
Sun 05:19:23 PM 36.5286 -114.3442 218° Southwest 420 483 14,800 -2,123 Descending Los Angeles Center
Sun 05:19:26 PM 36.5167 -114.3606 228° Southwest 413 475 14,500 -1,355 Descending Los Angeles Center
Sun 05:20:25 PM 36.4625 -114.4086 216° Southwest 395 455 13,400 -1,727 Descending Los Angeles Center
Sun 05:20:32 PM 36.4278 -114.4472 222° Southwest 340 391 12,600 -1,355 Descending Los Angeles Center
Sun 05:21:27 PM 36.3761 -114.4828 209° Southwest 326 375 12,000 -590 Descending Los Angeles Center
Sun 05:21:33 PM 36.3536 -114.4936 201° Southwest 299 344 12,000 -1,355 Level Los Angeles Center
Sun 05:22:29 PM 36.3078 -114.5597 229° Southwest 286 329 10,600 -1,613 Descending Los Angeles Center
Sun 05:23:32 PM 36.2692 -114.6486 242° Southwest 287 330 8,800 -1,727 Descending Los Angeles Center
Sun 05:23:35 PM 36.2667 -114.6569 250° West 284 327 8,700 -1,452 Descending Los Angeles Center
Sun 05:24:34 PM 36.2328 -114.7300 240° Southwest 276 318 7,300 -1,041 Descending Los Angeles Center
Sun 05:25:36 PM 36.2003 -114.8022 241° Southwest 252 290 6,600 -762 Descending Los Angeles Center
Sun 05:25:37 PM 36.1972 -114.8136 252° West 230 265 6,500 -581 Descending Los Angeles Center
Sun 05:26:38 PM 36.1700 -114.8706 239° Southwest 230 265 6,000 -246 Descending Los Angeles Center
Sun 05:27:39 PM 36.1353 -114.9542 243° Southwest 229 264 6,000  Level Los Angeles Center
Sun 05:27:40 PM 36.1383 -114.9392 76° East 228 262 6,000 -1,082 Level Los Angeles Center
Sun 05:28:40 PM 36.1353 -115.0236 267° West 199 229 4,900 -1,065 Descending Los Angeles Center
Sun 05:28:42 PM 36.1356 -115.0225 73° East 202 232 4,900 -1,219 Level Los Angeles Center
Sun 05:29:44 PM 36.1400 -115.0872 275° West 194 223 3,600 -1,292 Descending Los Angeles Center
Sun 05:29:47 PM 36.1378 -115.0944 249° West 186 214 3,500 -774 Descending Los Angeles Center
Sun 05:30:46 PM 36.1236 -115.1381 248° West 170 196 2,800 -787 Descending Los Angeles Center
Sun 05:30:48 PM 36.1217 -115.1397 215° Southwest 145 167 2,700 -677 Descending Los Angeles Center
Sun 05:31:48 PM 36.0900 -115.1578 205° Southwest 151 174 2,100 -600 Descending Los Angeles Center
Sun 05:33:00 PM 36.0801 -115.1523 219° Southwest  Level Estimated

Login

Don't have an account? Register now (free) for customized features, flight alerts, and more!